Alna, Maine
Current Conditions -  °F | °C
As of 3:53 PM on Tuesday 27 Jan 2015 (Local Time) from KIWI Reporting Station
Heavy Snow Heavy Snow  
Wind Chill: -1°   Ceiling: 300
Heat Index: 13°   Visibility: 0mi
Dew Point:   Wind: 12mph
Humidity: 84%   Direction: 20°NNE
Pressure: 29.51"   Gusts: 31mph
Location:  44.11°N, 69.6°W
Report Text: KIWI 272053Z AUTO 02010G27KT 310V060 M1/4SM +SN FZFG VV003 M11/M13 A2951 RMK AO2 PK WND 02029/2015 SLP992 P0005 60017 T11061128 55002
Loading
Personal Weather Stations






























Interactive Weather Map New forecast layout! Learn more

10-Day Weather Forecast

Advertisements
Track Severe Weather on mobile